Time;durP1;ratioP1;P1;durP2;ratioP2;P2;SDS_P1;SDS_P2;PMS_P1;PMS_P2;Temp;Humidity;BMP_temperature;BMP_pressure;BME280_temperature;BME280_humidity;BME280_pressure;Samples;Min_cycle;Max_cycle;Signal;HPM_P1;HPM_P2
2022/06/16 00:00:58;;;;;;;11.68;3.22;;;;;;;13.19;71.96;100676.16;5103047;28;20576;-70
2022/06/16 00:03:24;;;;;;;8.50;3.22;;;;;;;13.13;72.01;100669.31;5103135;28;20020;-72
2022/06/16 00:05:50;;;;;;;10.13;3.08;;;;;;;13.07;72.19;100672.84;5103035;28;20020;-69
2022/06/16 00:08:16;;;;;;;11.77;3.30;;;;;;;13.07;72.22;100667.63;5103099;28;20028;-70
2022/06/16 00:13:29;;;;;;;11.27;2.80;;;;;;;13.06;72.18;100660.69;5106135;28;20294;-71
2022/06/16 00:15:55;;;;;;;5.80;3.22;;;;;;;13.03;72.22;100655.53;5106598;28;20024;-70
2022/06/16 00:18:20;;;;;;;6.32;2.92;;;;;;;13.02;72.49;100664.22;5106583;28;20036;-71
2022/06/16 00:20:45;;;;;;;11.23;3.00;;;;;;;13.03;72.57;100658.13;5088432;28;20111;-71
2022/06/16 00:23:11;;;;;;;12.13;3.65;;;;;;;13.07;72.44;100657.19;5106702;28;20428;-71
2022/06/16 00:25:36;;;;;;;8.95;3.53;;;;;;;13.07;72.32;100652.00;5106464;28;20044;-71
2022/06/16 00:28:02;;;;;;;12.07;3.08;;;;;;;13.11;72.08;100650.22;5106520;28;20020;-71
2022/06/16 00:30:27;;;;;;;9.52;3.05;;;;;;;13.16;72.27;100655.34;5106625;28;20032;-71
2022/06/16 00:32:53;;;;;;;7.38;2.55;;;;;;;13.22;72.19;100668.28;5088121;28;20351;-71
2022/06/16 00:35:18;;;;;;;5.93;2.65;;;;;;;13.25;72.17;100661.28;5106432;28;20115;-71
2022/06/16 00:37:44;;;;;;;11.13;3.03;;;;;;;13.30;71.88;100663.81;5106331;28;20051;-72
2022/06/16 00:40:10;;;;;;;12.57;3.85;;;;;;;13.34;71.77;100655.06;5106312;28;20024;-72
2022/06/16 00:42:36;;;;;;;10.40;3.75;;;;;;;13.35;71.94;100651.56;5106316;28;20028;-72
2022/06/16 00:45:03;;;;;;;7.53;3.00;;;;;;;13.44;71.88;100662.72;5106287;28;20027;-72
2022/06/16 00:47:30;;;;;;;9.27;3.13;;;;;;;13.43;71.66;100658.41;5105742;28;20061;-71
2022/06/16 00:50:03;;;;;;;12.07;3.45;;;;;;;13.45;71.54;100656.63;5106318;28;20046;-71
2022/06/16 00:52:31;;;;;;;9.77;2.95;;;;;;;13.46;71.38;100650.53;5106007;28;20035;-72
2022/06/16 00:54:59;;;;;;;12.38;4.00;;;;;;;13.51;71.17;100654.78;5106093;28;20031;-72
2022/06/16 00:57:34;;;;;;;8.30;3.28;;;;;;;13.57;71.29;100652.97;5105776;28;20044;-71
2022/06/16 01:00:02;;;;;;;11.38;3.72;;;;;;;13.61;70.93;100650.28;5106068;28;20028;-71
2022/06/16 01:02:29;;;;;;;9.23;3.45;;;;;;;13.62;71.00;100654.66;5106255;28;20054;-70
2022/06/16 01:04:55;;;;;;;8.75;3.13;;;;;;;13.67;70.82;100656.31;5105761;28;20344;-70
2022/06/16 01:07:32;;;;;;;11.57;3.22;;;;;;;13.66;70.81;100645.00;5105904;28;20424;-70
2022/06/16 01:09:59;;;;;;;9.80;3.80;;;;;;;13.66;70.95;100645.00;5105871;28;20032;-71
2022/06/16 01:16:08;;;;;;;9.70;3.72;;;;;;;13.67;71.26;100645.88;5105866;28;20061;-71
2022/06/16 01:18:53;;;;;;;6.78;3.40;;;;;;;13.65;71.20;100647.63;5022486;28;20105;-71
2022/06/16 01:21:57;;;;;;;11.80;4.45;;;;;;;13.63;71.29;100645.91;5022698;28;20057;-71
2022/06/16 01:24:49;;;;;;;11.70;3.83;;;;;;;13.65;71.54;100651.09;5021205;28;20038;-71
2022/06/16 01:27:44;;;;;;;9.05;4.00;;;;;;;13.68;71.42;100652.78;5022627;28;20029;-70
2022/06/16 01:30:19;;;;;;;7.47;3.63;;;;;;;13.67;71.52;100644.13;5022564;28;20030;-71
2022/06/16 01:32:54;;;;;;;8.95;3.47;;;;;;;13.68;71.80;100642.34;5022388;28;20085;-72
2022/06/16 01:35:38;;;;;;;10.57;4.43;;;;;;;13.71;71.56;100642.31;5022514;28;20634;-71
2022/06/16 01:38:15;;;;;;;9.20;4.00;;;;;;;13.72;71.89;100644.03;5022611;28;20234;-71
2022/06/16 01:40:48;;;;;;;13.25;4.35;;;;;;;13.71;71.82;100642.31;5022416;28;20034;-71
2022/06/16 01:43:21;;;;;;;12.52;4.55;;;;;;;13.70;71.91;100636.25;5022302;28;20049;-71
2022/06/16 01:45:58;;;;;;;10.07;4.05;;;;;;;13.69;72.15;100631.06;5022069;28;20030;-71
2022/06/16 01:48:27;;;;;;;12.75;3.83;;;;;;;13.63;72.47;100629.41;5022061;28;20038;-70
2022/06/16 01:51:03;;;;;;;9.20;4.15;;;;;;;13.61;72.85;100633.81;5022137;28;20030;-71
2022/06/16 01:53:50;;;;;;;9.20;4.28;;;;;;;13.65;72.66;100627.63;5022010;28;20076;-71
2022/06/16 01:56:19;;;;;;;12.85;4.20;;;;;;;13.65;72.41;100629.38;5096334;28;20058;-70
2022/06/16 01:58:52;;;;;;;14.27;4.32;;;;;;;13.68;72.69;100629.31;5104549;28;20400;-71
2022/06/16 02:01:21;;;;;;;11.95;4.43;;;;;;;13.63;72.69;100625.06;5104945;28;20119;-71
2022/06/16 02:03:55;;;;;;;13.77;4.22;;;;;;;13.63;72.88;100634.63;5104373;28;20047;-70
2022/06/16 02:06:25;;;;;;;11.50;4.55;;;;;;;13.63;73.03;100630.25;5086217;28;20047;-72
2022/06/16 02:08:56;;;;;;;10.68;3.80;;;;;;;13.70;72.57;100636.25;5104485;28;20111;-71
2022/06/16 02:11:31;;;;;;;18.17;4.75;;;;;;;13.71;72.79;100626.66;5104646;28;20028;-71
2022/06/16 02:14:13;;;;;;;8.05;3.95;;;;;;;13.69;72.77;100628.44;5086317;28;20020;-71
2022/06/16 02:16:40;;;;;;;11.73;4.28;;;;;;;13.67;72.95;100631.09;5104393;28;20035;-70
2022/06/16 02:19:11;;;;;;;14.95;5.47;;;;;;;13.63;73.26;100625.06;5104057;28;20032;-71
2022/06/16 02:21:43;;;;;;;19.77;5.32;;;;;;;13.66;73.21;100633.72;5086230;28;20615;-70
2022/06/16 02:24:13;;;;;;;13.53;4.33;;;;;;;13.62;73.18;100628.56;5104305;28;20078;-71
2022/06/16 02:26:39;;;;;;;11.80;4.22;;;;;;;13.60;73.25;100629.44;5104293;28;20027;-71
2022/06/16 02:29:29;;;;;;;14.85;4.78;;;;;;;13.60;73.51;100624.22;5104414;28;20020;-71
2022/06/16 02:32:38;;;;;;;14.27;4.30;;;;;;;13.58;73.31;100629.47;5104116;28;20073;-72
2022/06/16 02:35:27;;;;;;;11.10;4.35;;;;;;;13.55;73.58;100626.94;5021113;28;20048;-71
2022/06/16 02:38:12;;;;;;;15.40;4.75;;;;;;;13.56;73.65;100626.03;5021194;28;20057;-71
2022/06/16 02:41:25;;;;;;;12.45;4.75;;;;;;;13.57;73.37;100630.38;5005050;28;20036;-71
2022/06/16 02:43:50;;;;;;;;;;;;;;;13.57;73.35;100622.56;5021692;28;20536;-71
2022/06/16 02:46:40;;;;;;;18.17;4.68;;;;;;;13.56;73.30;100620.81;5021220;28;19913;-71
2022/06/16 02:49:20;;;;;;;11.27;4.03;;;;;;;13.58;73.34;100626.00;5020962;28;20089;-71
2022/06/16 02:51:48;;;;;;;13.02;3.95;;;;;;;13.59;73.45;100620.78;5021314;28;20041;-71
2022/06/16 02:54:35;;;;;;;10.40;4.30;;;;;;;13.61;73.08;100621.59;5021120;28;20026;-71
2022/06/16 02:57:24;;;;;;;13.85;4.38;;;;;;;13.61;73.32;100615.53;5020772;28;20525;-71
2022/06/16 02:59:57;;;;;;;11.70;4.35;;;;;;;13.54;73.62;100609.56;5021098;28;20151;-71
2022/06/16 03:02:24;;;;;;;12.95;4.18;;;;;;;13.53;73.77;100613.03;5021090;28;20083;-71
2022/06/16 03:04:56;;;;;;;12.90;4.70;;;;;;;13.54;73.78;100609.56;5021104;28;20042;-71
2022/06/16 03:07:22;;;;;;;19.33;4.78;;;;;;;13.57;73.74;100609.50;5020885;28;20033;-72
2022/06/16 03:09:48;;;;;;;12.23;4.60;;;;;;;13.54;73.88;100606.97;5092037;28;20099;-71
2022/06/16 03:12:15;;;;;;;9.35;4.38;;;;;;;13.62;73.65;100602.47;5103440;28;20027;-71
2022/06/16 03:14:41;;;;;;;10.57;4.53;;;;;;;13.63;73.85;100604.19;5103578;28;20031;-72
2022/06/16 03:17:08;;;;;;;14.32;4.75;;;;;;;13.59;73.73;100607.75;5103445;28;20532;-72
2022/06/16 03:19:33;;;;;;;17.45;5.13;;;;;;;13.63;73.64;100613.75;5103474;28;20343;-72
2022/06/16 03:21:59;;;;;;;15.52;4.60;;;;;;;13.61;73.83;100608.56;5103496;28;20103;-72
2022/06/16 03:24:25;;;;;;;16.02;5.00;;;;;;;13.60;73.89;100612.06;5103558;28;20031;-71
2022/06/16 03:26:50;;;;;;;14.43;4.72;;;;;;;13.61;73.96;100605.94;5103156;28;20028;-72
2022/06/16 03:29:16;;;;;;;13.50;5.25;;;;;;;13.67;73.78;100598.91;5103351;28;20020;-72
2022/06/16 03:31:42;;;;;;;9.00;4.32;;;;;;;13.70;73.97;100602.31;5103211;28;20049;-72
2022/06/16 03:34:08;;;;;;;17.05;5.07;;;;;;;13.73;73.76;100596.19;5103120;28;20102;-72
2022/06/16 03:36:34;;;;;;;11.23;4.50;;;;;;;13.76;73.75;100598.72;5103264;28;20070;-72
2022/06/16 03:39:01;;;;;;;12.60;4.53;;;;;;;13.74;73.57;100590.06;5103334;28;20016;-72
2022/06/16 03:41:27;;;;;;;14.23;4.95;;;;;;;13.81;73.63;100602.13;5103239;28;20080;-72
2022/06/16 03:43:52;;;;;;;8.75;4.05;;;;;;;13.79;73.71;100596.06;5103238;28;20027;-72
2022/06/16 03:46:18;;;;;;;10.05;4.60;;;;;;;13.85;73.66;100592.50;5103042;28;20024;-71
2022/06/16 03:48:43;;;;;;;17.67;4.65;;;;;;;13.85;73.78;100598.56;5106433;28;20049;-71
2022/06/16 03:51:09;;;;;;;12.30;4.32;;;;;;;13.85;73.59;100601.16;5107542;28;20031;-71
2022/06/16 03:53:35;;;;;;;9.48;4.18;;;;;;;13.83;73.59;100596.88;5107227;28;20043;-72
2022/06/16 03:56:02;;;;;;;12.68;4.43;;;;;;;13.81;73.85;100596.03;5088718;28;20217;-71
2022/06/16 03:58:27;;;;;;;18.13;4.82;;;;;;;13.78;74.18;100599.56;5106986;28;20097;-71
2022/06/16 04:00:53;;;;;;;15.48;5.22;;;;;;;13.86;73.95;100596.81;5106856;28;20032;-70
2022/06/16 04:06:02;;;;;;;13.40;4.38;;;;;;;13.83;73.88;100599.47;5106736;28;20061;-75
2022/06/16 04:08:28;;;;;;;11.65;4.88;;;;;;;13.84;73.96;100602.06;5088461;28;20028;-70
2022/06/16 04:10:54;;;;;;;10.80;4.75;;;;;;;13.82;73.91;100609.06;5106816;28;20183;-70
2022/06/16 04:13:20;;;;;;;10.38;4.20;;;;;;;13.83;73.82;100592.53;5106911;28;20031;-69
2022/06/16 04:15:45;;;;;;;17.17;4.75;;;;;;;13.90;73.61;100589.78;5106894;28;20028;-69
2022/06/16 04:18:11;;;;;;;9.68;4.53;;;;;;;13.92;73.48;100598.44;5106402;28;20019;-69
2022/06/16 04:20:36;;;;;;;15.60;5.10;;;;;;;13.97;73.66;100594.88;5107013;28;20483;-75
2022/06/16 04:23:02;;;;;;;11.15;4.50;;;;;;;14.04;73.30;100586.91;5106839;28;20031;-72
2022/06/16 04:25:31;;;;;;;9.50;4.28;;;;;;;14.04;73.09;100589.53;5106747;28;20023;-70
2022/06/16 04:28:07;;;;;;;10.38;4.38;;;;;;;14.08;73.37;100578.97;5106295;28;20103;-75
2022/06/16 04:30:33;;;;;;;12.27;4.80;;;;;;;14.17;73.11;100585.75;5106501;28;20040;-70
2022/06/16 04:32:59;;;;;;;11.68;4.32;;;;;;;14.23;72.77;100582.16;5106192;28;20024;-68
2022/06/16 04:35:26;;;;;;;17.85;4.40;;;;;;;14.20;72.98;100577.00;5106420;28;20093;-69
2022/06/16 04:37:52;;;;;;;16.27;4.78;;;;;;;14.21;72.93;100576.09;5106314;28;20341;-70
2022/06/16 04:40:18;;;;;;;13.38;4.25;;;;;;;14.26;73.11;100579.50;5106206;28;20027;-66
2022/06/16 04:42:43;;;;;;;16.25;4.35;;;;;;;14.37;72.95;100574.03;5106166;28;20019;-73
2022/06/16 04:45:10;;;;;;;14.15;5.05;;;;;;;14.49;72.41;100580.72;5106439;28;20043;-74
2022/06/16 04:47:39;;;;;;;18.75;5.05;;;;;;;14.53;72.56;100578.91;5106027;28;20021;-74
2022/06/16 04:50:07;;;;;;;14.98;4.35;;;;;;;14.61;72.36;100583.09;5106174;28;20093;-74
2022/06/16 04:52:32;;;;;;;16.13;4.57;;;;;;;14.73;71.87;100581.06;5106109;28;20035;-74
2022/06/16 04:54:58;;;;;;;15.05;3.80;;;;;;;14.80;72.04;100580.09;5106109;28;20044;-74
2022/06/16 04:57:24;;;;;;;10.90;4.45;;;;;;;14.77;71.29;100577.50;5105864;28;20115;-73
2022/06/16 04:59:49;;;;;;;10.57;3.63;;;;;;;14.84;71.41;100579.09;5106217;28;20024;-74
2022/06/16 05:02:15;;;;;;;10.70;3.55;;;;;;;14.96;71.08;100582.31;5106217;28;20019;-73
2022/06/16 05:04:42;;;;;;;12.52;3.83;;;;;;;14.95;70.44;100583.22;5105795;28;20024;-74
2022/06/16 05:07:07;;;;;;;10.60;3.20;;;;;;;15.05;70.17;100591.72;5105640;28;20024;-74
2022/06/16 05:09:33;;;;;;;12.90;4.15;;;;;;;15.06;70.15;100586.47;5105683;28;20046;-74
2022/06/16 05:11:58;;;;;;;13.15;3.65;;;;;;;15.11;70.28;100587.19;5106057;28;20028;-74
2022/06/16 05:14:24;;;;;;;9.80;3.67;;;;;;;15.11;69.92;100587.19;5087652;28;20119;-74
2022/06/16 05:16:49;;;;;;;12.55;3.90;;;;;;;15.09;69.56;100591.59;5105243;28;20053;-73
2022/06/16 05:19:15;;;;;;;13.15;3.22;;;;;;;15.11;69.43;100581.94;5104458;28;20050;-74
2022/06/16 05:21:40;;;;;;;14.77;4.72;;;;;;;15.05;69.99;100584.72;5105718;28;20107;-74
2022/06/16 05:24:05;;;;;;;9.55;3.22;;;;;;;15.15;69.55;100589.72;5105531;28;20024;-74
2022/06/16 05:26:31;;;;;;;12.85;3.63;;;;;;;15.23;69.16;100593.88;5105208;28;20157;-73
2022/06/16 05:28:56;;;;;;;9.68;3.92;;;;;;;15.55;69.55;100591.34;5105274;28;20020;-73
2022/06/16 05:31:23;;;;;;;11.35;3.45;;;;;;;15.95;68.59;100594.63;5105426;28;20028;-74
2022/06/16 05:33:49;;;;;;;9.93;3.78;;;;;;;16.15;67.92;100587.97;5086762;28;20028;-74
2022/06/16 05:36:14;;;;;;;9.55;3.15;;;;;;;16.26;67.12;100586.81;5105110;28;20069;-73
2022/06/16 05:38:40;;;;;;;12.38;3.53;;;;;;;16.33;66.70;100594.44;5105224;28;20043;-73
2022/06/16 05:41:10;;;;;;;9.40;3.63;;;;;;;16.38;66.15;100596.94;5105103;28;20041;-73
2022/06/16 05:43:36;;;;;;;10.15;3.22;;;;;;;16.26;65.37;100598.16;5105231;28;20106;-73
2022/06/16 05:46:04;;;;;;;15.80;4.75;;;;;;;16.16;65.48;100597.56;5104890;28;20024;-73
2022/06/16 05:48:30;;;;;;;12.57;3.40;;;;;;;16.47;65.64;100598.41;5104961;28;20024;-73
2022/06/16 05:50:55;;;;;;;15.32;3.05;;;;;;;16.99;65.24;100597.69;5105194;28;20039;-73
2022/06/16 05:53:20;;;;;;;16.60;3.83;;;;;;;17.37;63.85;100609.63;5105193;28;20088;-74
2022/06/16 05:55:46;;;;;;;11.70;3.10;;;;;;;17.54;63.39;100609.91;5105069;28;20265;-73
2022/06/16 05:58:12;;;;;;;11.27;3.30;;;;;;;17.51;62.77;100590.78;5104764;28;20070;-74
2022/06/16 06:00:38;;;;;;;11.05;3.00;;;;;;;17.47;62.53;100603.16;5105025;28;20099;-73
2022/06/16 06:03:03;;;;;;;12.55;3.03;;;;;;;17.44;62.14;100613.75;5086323;28;20035;-73
2022/06/16 06:05:29;;;;;;;15.55;5.68;;;;;;;17.33;62.26;100616.75;5104844;28;20024;-73
2022/06/16 06:16:28;;;;;;;9.40;3.15;;;;;;;16.87;62.77;100616.44;5104668;28;20027;-72
2022/06/16 06:18:57;;;;;;;8.20;3.47;;;;;;;16.76;62.89;100612.38;5104446;28;20434;-73
2022/06/16 06:24:09;;;;;;;8.98;3.05;;;;;;;16.69;62.58;100618.75;5104542;28;20059;-73
2022/06/16 06:26:35;;;;;;;7.03;3.60;;;;;;;16.78;62.64;100609.72;5104165;28;20034;-72
2022/06/16 06:29:00;;;;;;;8.77;2.85;;;;;;;16.95;62.49;100617.03;5104363;28;20528;-72
2022/06/16 06:31:25;;;;;;;14.60;4.25;;;;;;;17.02;62.33;100622.97;5104387;28;20020;-73
2022/06/16 06:33:51;;;;;;;10.95;3.00;;;;;;;17.18;62.48;100624.22;5104148;28;20028;-73
2022/06/16 06:36:16;;;;;;;13.43;3.63;;;;;;;17.29;61.75;100626.50;5104192;28;20027;-74
2022/06/16 06:38:42;;;;;;;10.55;3.55;;;;;;;17.34;61.55;100629.81;5104299;28;20092;-74
2022/06/16 06:41:07;;;;;;;11.73;3.30;;;;;;;17.21;61.53;100628.50;5104290;28;20024;-74
2022/06/16 06:43:32;;;;;;;8.30;2.88;;;;;;;17.20;61.50;100621.56;5104026;28;20023;-74
2022/06/16 06:45:58;;;;;;;8.60;2.92;;;;;;;17.25;61.79;100624.03;5104148;28;20024;-74
2022/06/16 06:48:23;;;;;;;11.20;3.30;;;;;;;17.29;61.73;100618.63;5103901;28;20478;-73
2022/06/16 06:50:48;;;;;;;14.95;3.08;;;;;;;17.41;61.40;100614.72;5085608;28;20020;-73
2022/06/16 06:53:14;;;;;;;10.13;3.10;;;;;;;17.46;61.21;100623.28;5103798;28;20052;-73
2022/06/16 06:55:43;;;;;;;8.38;3.35;;;;;;;17.51;61.02;100623.13;5103851;28;20024;-74
2022/06/16 06:58:16;;;;;;;14.43;3.75;;;;;;;17.65;60.58;100637.56;5103780;28;20099;-73
2022/06/16 07:00:41;;;;;;;11.15;2.88;;;;;;;17.68;60.57;100638.28;5103744;28;20388;-73
2022/06/16 07:03:08;;;;;;;8.18;2.53;;;;;;;17.75;60.14;100636.31;5103426;28;20028;-73
2022/06/16 07:05:33;;;;;;;13.18;2.92;;;;;;;17.96;60.29;100631.22;5103627;28;20020;-74
2022/06/16 07:07:59;;;;;;;12.05;3.35;;;;;;;18.15;59.70;100633.19;5103417;28;20068;-74
2022/06/16 07:10:25;;;;;;;8.43;3.22;;;;;;;18.39;58.94;100627.94;5103715;28;20020;-73
2022/06/16 07:12:51;;;;;;;10.77;3.13;;;;;;;18.39;58.85;100635.84;5103809;28;20024;-73
2022/06/16 07:15:16;;;;;;;11.63;3.78;;;;;;;18.45;58.58;100633.00;5103849;28;20050;-73
2022/06/16 07:17:42;;;;;;;9.05;3.40;;;;;;;18.65;58.44;100634.00;5103580;28;20020;-72
2022/06/16 07:20:09;;;;;;;12.57;2.80;;;;;;;18.90;57.79;100627.75;5103393;28;20031;-72
2022/06/16 07:22:34;;;;;;;9.43;2.50;;;;;;;19.39;57.29;100637.25;5102793;28;20080;-74
2022/06/16 07:24:59;;;;;;;8.88;2.70;;;;;;;19.66;56.18;100623.81;5103583;28;20031;-73
2022/06/16 07:27:25;;;;;;;9.85;2.92;;;;;;;19.86;55.76;100628.19;5103503;28;20017;-73
2022/06/16 07:29:50;;;;;;;8.93;2.67;;;;;;;20.10;55.08;100627.19;5103635;28;20023;-74
2022/06/16 07:32:18;;;;;;;10.35;2.78;;;;;;;20.11;53.50;100632.41;5103441;28;20384;-73
2022/06/16 07:34:44;;;;;;;8.05;2.60;;;;;;;20.33;53.83;100633.22;5103185;28;20034;-73
2022/06/16 07:37:09;;;;;;;11.32;2.60;;;;;;;20.58;53.36;100634.69;5103619;28;20325;-73
2022/06/16 07:39:35;;;;;;;7.80;2.47;;;;;;;20.65;52.70;100641.41;5103350;28;20504;-73
2022/06/16 07:42:00;;;;;;;9.20;2.80;;;;;;;20.75;52.39;100642.66;5103436;28;20024;-73
2022/06/16 07:44:25;;;;;;;9.52;2.22;;;;;;;21.08;51.71;100640.28;5103516;28;20024;-74
2022/06/16 07:46:51;;;;;;;5.65;2.22;;;;;;;21.79;50.99;100638.53;5103299;28;20026;-73
2022/06/16 07:49:22;;;;;;;7.13;2.00;;;;;;;21.92;48.51;100638.75;5103261;28;20523;-73
2022/06/16 07:51:49;;;;;;;8.40;3.05;;;;;;;21.74;48.17;100646.66;5103451;28;20050;-74
2022/06/16 07:54:14;;;;;;;7.47;2.40;;;;;;;22.28;48.12;100640.34;5102947;28;20060;-73
2022/06/16 07:56:40;;;;;;;10.77;2.42;;;;;;;22.92;47.17;100638.69;5103225;28;20059;-73
2022/06/16 07:59:06;;;;;;;8.13;2.42;;;;;;;23.72;45.96;100647.38;5102975;28;20040;-73
2022/06/16 08:01:31;;;;;;;5.45;2.25;;;;;;;24.47;44.38;100648.97;5103126;28;20092;-73
2022/06/16 08:03:57;;;;;;;4.88;1.80;;;;;;;25.17;43.07;100648.09;5102798;28;20030;-73
2022/06/16 08:06:26;;;;;;;7.65;2.30;;;;;;;25.58;41.63;100654.22;5103077;28;20024;-73
2022/06/16 08:08:54;;;;;;;10.48;2.38;;;;;;;25.48;41.64;100657.53;5103215;28;20012;-72
2022/06/16 08:14:04;;;;;;;10.38;2.20;;;;;;;26.64;39.94;100654.91;5103275;28;20053;-72
2022/06/16 08:16:33;;;;;;;9.38;2.40;;;;;;;27.32;38.04;100656.19;5102981;28;20020;-72
2022/06/16 08:18:59;;;;;;;8.50;2.40;;;;;;;27.74;36.95;100660.19;5102724;28;20013;-73
2022/06/16 08:21:25;;;;;;;9.05;2.42;;;;;;;27.50;36.37;100658.41;5103180;28;20070;-73
2022/06/16 08:23:50;;;;;;;14.05;3.35;;;;;;;27.09;37.00;100658.78;5102969;28;20476;-74
2022/06/16 08:26:16;;;;;;;11.75;3.63;;;;;;;27.05;36.57;100651.97;5103103;28;20032;-73
2022/06/16 08:28:41;;;;;;;7.93;1.95;;;;;;;27.20;36.36;100652.66;5103145;28;20026;-73
2022/06/16 08:31:08;;;;;;;11.65;2.63;;;;;;;27.20;36.18;100653.50;5103020;28;20048;-74
2022/06/16 08:33:33;;;;;;;9.43;2.30;;;;;;;26.94;36.34;100658.09;5103913;28;20059;-72
2022/06/16 08:35:59;;;;;;;14.95;2.40;;;;;;;26.51;36.64;100672.72;5106545;28;20020;-73
2022/06/16 08:38:24;;;;;;;11.50;2.92;;;;;;;26.18;36.70;100669.69;5088195;28;20027;-73
2022/06/16 08:41:11;;;;;;;9.48;3.15;;;;;;;25.74;37.53;100672.69;5106480;28;20089;-73
2022/06/16 08:43:53;;;;;;;7.85;2.17;;;;;;;25.91;37.50;100679.47;5106931;28;20020;-73
2022/06/16 08:46:20;;;;;;;9.50;2.80;;;;;;;26.52;37.60;100675.28;5106328;28;20050;-72
2022/06/16 08:49:01;;;;;;;8.93;2.10;;;;;;;27.18;35.88;100670.56;5106150;28;20069;-74
2022/06/16 08:51:41;;;;;;;9.50;2.55;;;;;;;27.70;35.08;100668.44;5088054;28;20375;-72
2022/06/16 08:54:18;;;;;;;9.25;2.40;;;;;;;27.94;34.59;100664.81;5106315;28;20019;-72
2022/06/16 08:57:15;;;;;;;8.50;2.22;;;;;;;28.12;33.86;100656.34;5106165;28;20032;-71
2022/06/16 08:59:46;;;;;;;12.90;2.63;;;;;;;28.30;33.66;100663.84;5097590;28;20392;-73
2022/06/16 09:02:25;;;;;;;9.30;2.35;;;;;;;28.32;32.86;100669.94;5087728;28;20028;-72
2022/06/16 09:05:05;;;;;;;7.40;2.78;;;;;;;28.32;33.80;100664.59;5105701;28;20052;-73
2022/06/16 09:07:43;;;;;;;8.52;2.10;;;;;;;28.86;33.43;100662.06;5105923;28;20032;-74
2022/06/16 09:10:33;;;;;;;9.07;2.35;;;;;;;29.23;31.66;100658.16;5106319;28;20611;-74
2022/06/16 09:13:27;;;;;;;7.65;2.22;;;;;;;29.28;31.96;100660.44;5106154;28;20024;-75
2022/06/16 09:16:01;;;;;;;6.00;2.33;;;;;;;29.13;32.04;100667.91;5105871;28;20089;-74
2022/06/16 09:18:37;;;;;;;7.65;2.70;;;;;;;28.80;31.39;100667.91;5105499;28;20491;-75
2022/06/16 09:21:12;;;;;;;8.25;1.98;;;;;;;28.38;32.19;100680.13;5105896;28;20084;-75
2022/06/16 09:24:02;;;;;;;6.15;2.00;;;;;;;28.44;32.94;100674.28;5105761;28;20030;-75
2022/06/16 09:26:46;;;;;;;5.47;1.93;;;;;;;28.70;31.79;100673.16;5105592;28;20080;-74
2022/06/16 09:29:26;;;;;;;6.70;2.10;;;;;;;29.06;31.60;100672.91;5105751;28;20028;-75
2022/06/16 09:32:16;;;;;;;10.10;2.38;;;;;;;29.20;32.00;100677.97;5105552;28;20024;-75
2022/06/16 09:34:49;;;;;;;6.68;2.50;;;;;;;29.32;30.95;100662.72;5105397;28;20035;-75
2022/06/16 09:37:28;;;;;;;6.90;1.85;;;;;;;29.19;31.08;100672.75;5105586;28;20524;-75
2022/06/16 09:40:02;;;;;;;6.60;1.75;;;;;;;29.33;31.05;100682.28;5105444;28;20027;-75
2022/06/16 09:42:56;;;;;;;7.28;1.92;;;;;;;29.29;30.78;100678.16;5105472;28;20031;-75
2022/06/16 09:45:56;;;;;;;9.02;2.13;;;;;;;29.48;31.08;100677.47;5096783;28;20365;-75
2022/06/16 09:48:26;;;;;;;9.57;2.00;;;;;;;29.72;30.51;100680.88;5086690;28;20042;-74
2022/06/16 09:51:06;;;;;;;7.10;1.70;;;;;;;29.89;30.37;100684.78;5105202;28;20044;-75
2022/06/16 09:53:34;;;;;;;6.70;1.85;;;;;;;29.94;30.05;100693.22;5105238;28;20020;-75
2022/06/16 09:56:13;;;;;;;5.15;2.47;;;;;;;29.84;30.01;100693.22;5105055;28;20047;-75
2022/06/16 09:58:54;;;;;;;7.13;2.03;;;;;;;29.72;30.22;100689.75;5104838;28;20652;-75
2022/06/16 10:01:24;;;;;;;8.15;2.58;;;;;;;29.76;30.26;100698.38;5105116;28;20092;-75
2022/06/16 10:03:55;;;;;;;6.95;2.00;;;;;;;29.54;30.19;100695.66;5104668;28;20407;-75
2022/06/16 10:06:39;;;;;;;9.20;1.92;;;;;;;29.37;30.42;100699.78;5105093;28;20424;-74
2022/06/16 10:09:25;;;;;;;8.32;2.00;;;;;;;29.24;30.62;100709.78;5104958;28;20028;-74
2022/06/16 10:12:04;;;;;;;6.65;1.77;;;;;;;28.93;31.28;100710.50;5104856;28;20050;-75
2022/06/16 10:14:41;;;;;;;7.30;1.92;;;;;;;28.98;31.16;100702.13;5105021;28;20026;-75
2022/06/16 10:17:09;;;;;;;8.68;2.17;;;;;;;28.87;31.08;100714.50;5104879;28;20023;-75
2022/06/16 10:19:38;;;;;;;5.93;1.90;;;;;;;28.80;31.12;100716.81;5104385;28;20088;-75
2022/06/16 10:22:05;;;;;;;7.20;2.13;;;;;;;28.68;31.31;100713.34;5104568;28;20028;-75
2022/06/16 10:24:40;;;;;;;7.25;2.38;;;;;;;28.69;31.66;100709.69;5104569;28;20020;-75
2022/06/16 10:27:08;;;;;;;8.52;1.98;;;;;;;28.70;32.02;100708.72;5104470;28;20032;-75
2022/06/16 10:29:35;;;;;;;8.60;2.00;;;;;;;28.93;31.92;100715.84;5104599;28;20073;-75
2022/06/16 10:32:03;;;;;;;9.23;2.10;;;;;;;29.03;31.39;100700.75;5104521;28;20051;-75
2022/06/16 10:34:36;;;;;;;8.13;2.20;;;;;;;29.04;31.57;100714.97;5104117;28;20024;-75
2022/06/16 10:37:04;;;;;;;9.57;2.42;;;;;;;28.98;31.27;100724.34;5104311;28;20444;-75
2022/06/16 10:39:54;;;;;;;7.78;1.95;;;;;;;28.76;31.60;100719.88;5104374;28;20491;-75
2022/06/16 10:42:26;;;;;;;8.83;2.10;;;;;;;28.39;31.87;100727.19;5104334;28;20038;-74
2022/06/16 10:44:57;;;;;;;8.73;2.20;;;;;;;28.14;32.69;100728.25;5104318;28;20016;-75
2022/06/16 10:47:52;;;;;;;;;;;;;;;27.99;32.75;100717.81;5104663;28;20088;-73
2022/06/16 10:50:44;;;;;;;9.93;2.17;;;;;;;28.09;32.39;100713.47;5085807;28;19999;-74
2022/06/16 10:53:27;;;;;;;11.70;1.98;;;;;;;27.39;33.19;100716.09;5021174;28;20065;-74
2022/06/16 10:56:02;;;;;;;5.13;1.60;;;;;;;27.04;34.21;100727.56;5021076;28;20112;-74
2022/06/16 10:58:31;;;;;;;7.18;1.70;;;;;;;26.83;34.47;100726.31;5021134;28;20050;-73
2022/06/16 11:01:17;;;;;;;7.72;2.13;;;;;;;25.97;35.57;100724.28;5021301;28;20068;-73
2022/06/16 11:04:10;;;;;;;9.13;2.05;;;;;;;25.13;37.13;100727.13;5021009;28;20029;-73
2022/06/16 11:06:40;;;;;;;5.75;2.05;;;;;;;24.48;38.71;100719.69;5016988;28;20099;-73
2022/06/16 11:09:07;;;;;;;5.95;1.80;;;;;;;24.04;38.80;100729.41;5021339;28;20057;-73
2022/06/16 11:11:42;;;;;;;8.98;2.22;;;;;;;23.65;39.88;100721.06;5021356;28;20041;-73
2022/06/16 11:14:18;;;;;;;8.65;1.85;;;;;;;23.43;39.88;100729.44;5021190;28;20040;-73
2022/06/16 11:16:49;;;;;;;5.38;1.88;;;;;;;23.17;40.43;100731.72;5021003;28;20108;-73
2022/06/16 11:19:26;;;;;;;6.70;2.53;;;;;;;22.91;40.68;100740.19;5020842;28;20034;-73
2022/06/16 11:21:52;;;;;;;8.07;1.75;;;;;;;22.63;41.46;100744.38;5021715;28;20034;-73
2022/06/16 11:24:30;;;;;;;8.98;2.10;;;;;;;22.38;42.20;100743.84;5021392;28;20494;-73
2022/06/16 11:27:12;;;;;;;10.38;3.00;;;;;;;22.03;43.12;100735.97;5020955;28;20026;-72
2022/06/16 11:29:37;;;;;;;6.22;2.20;;;;;;;21.91;43.60;100737.47;5043065;28;20039;-74
2022/06/16 11:32:06;;;;;;;11.30;2.05;;;;;;;21.64;44.15;100741.41;5103516;28;20032;-73
2022/06/16 11:34:32;;;;;;;11.25;2.20;;;;;;;21.45;44.38;100738.81;5103277;28;20051;-73
2022/06/16 11:37:00;;;;;;;7.93;2.25;;;;;;;21.26;44.15;100736.22;5085199;28;20051;-74
2022/06/16 11:40:07;;;;;;;10.93;2.05;;;;;;;20.95;45.54;100738.53;5103841;28;20024;-73
2022/06/16 11:42:55;;;;;;;7.43;2.15;;;;;;;20.77;45.81;100735.78;5103626;28;20027;-73
2022/06/16 11:45:36;;;;;;;5.13;1.73;;;;;;;20.63;46.73;100740.84;5103800;28;20024;-72
2022/06/16 11:48:39;;;;;;;5.20;1.90;;;;;;;20.55;47.30;100730.66;5085053;28;20380;-73
2022/06/16 11:51:22;;;;;;;8.20;2.17;;;;;;;20.39;46.93;100735.75;5103483;28;20034;-72
2022/06/16 11:54:16;;;;;;;5.70;1.98;;;;;;;20.24;47.70;100734.66;5103390;28;20050;-73
2022/06/16 11:56:48;;;;;;;10.77;2.20;;;;;;;20.16;48.24;100738.47;5103340;28;20059;-71
2022/06/16 11:59:25;;;;;;;12.55;2.70;;;;;;;20.11;48.81;100735.19;5103135;28;20068;-74
2022/06/16 12:02:02;;;;;;;9.07;2.63;;;;;;;19.90;49.59;100736.94;5103764;28;20028;-73
2022/06/16 12:04:41;;;;;;;6.68;2.45;;;;;;;19.77;49.89;100731.34;5103144;28;20020;-73